Wright Patterson Air Force Base
KFFO : now visible

Airfield :











YOU CAN JOIN US ON...

 
LOGIN :

Register | Disclaimer

   EN    FR    IT 

 









Legend :    VFR   Marginal VFR   IFR   Intensive IFR   Very Intensive IFR
Visi :
Ceiling :
>= 8 km
>= 3000ft
5 to 8 km
1000 to 3000 ft
1500m to 5 km
500 to 1000 ft
800 to 1500m
200 to 500 ft
< 800m
< 200 ft
Symbols :   Thunderstorms  Fog  Heavy snow  Heavy precipitations  Wind > 20 kt







- Airport Elevation : 823 ft


KFFO - Wright Patterson Air Force Base

CURRENT METAR :
  • 210556Z 27007KT 10SM BKN018 OVC025 04/01 A2998 RMK AO2A SLP161 4/001 T00370006 10062 20036 52032

EXPIRED METARs :
  • 210456Z 25012KT 10SM OVC019 04/02 A2995 RMK AO2A SLP151 T00440016 400621020
  • 210356Z 25013KT 10SM BKN016 OVC019 05/04 A2991 RMK AO2A SLP137 T00490036
  • 210341Z 25012KT 10SM FEW008 BKN015 OVC020 05/04 A2990 RMK AO2A SLP134

TAF AMD TAF KFFO
Valid from the 21 at 04:00 until the 22 at 09:00 UTC


210400Z 2104/2209 25012KT 9999 SCT008 BKN015 QNH2986INS
BECMG 2104/2106 26009KT 9999 OVC010 620152 QNH2996INS
BECMG 2114/2115 24009KT 9999 BKN015 620152 QNH3016INS
BECMG 2117/2118 24009KT 9999 FEW020 SCT150 QNH3018INS WND 35009KT AFT 2203 TX06/2121Z TN00/2112Z
KZID FIR / North America



MET'MAP, your aeronautical weather chart ! - Copyright ORBIFLY December 2007 - Disclaimer

ORBIFLY MET'MAP TEAM :

Programming & Development : Alexandra Zaïnal
Concept & Development : Baudouin d'Aumeries
Co-Development & Prog : Marc-Olivier Méhu
Technical & hardware support : Manuel Goepfert

Contact : metmap@orbifly.com




SOURCES & CREDITS :

   NOAA       Earth
Advisory